createdAt,value
2023-05-23T00:00:09.187Z,8.23
2023-05-23T00:02:35.764Z,7.57
2023-05-23T00:05:03.683Z,7.75
2023-05-23T00:07:32.458Z,8.30
2023-05-23T00:09:59.003Z,7.80
2023-05-23T00:12:25.672Z,8.60
2023-05-23T00:14:53.645Z,8.27
2023-05-23T00:17:21.926Z,7.93
2023-05-23T00:19:49.011Z,9.10
2023-05-23T00:22:16.757Z,9.10
2023-05-23T00:24:44.012Z,8.65
2023-05-23T00:27:10.629Z,8.23
2023-05-23T00:29:37.168Z,8.38
2023-05-23T00:32:03.830Z,8.07
2023-05-23T00:34:30.365Z,8.07
2023-05-23T00:36:58.206Z,8.30
2023-05-23T00:39:24.766Z,8.63
2023-05-23T00:41:52.917Z,8.43
2023-05-23T00:44:21.166Z,8.05
2023-05-23T00:46:55.481Z,7.90
2023-05-23T00:49:22.378Z,7.95
2023-05-23T00:51:50.057Z,7.68
2023-05-23T00:54:28.719Z,8.20
2023-05-23T00:56:56.074Z,7.68
2023-05-23T00:59:26.795Z,8.15
2023-05-23T01:01:55.886Z,8.02
2023-05-23T01:04:26.409Z,8.13
2023-05-23T01:06:54.864Z,8.27
2023-05-23T01:09:22.421Z,8.45
2023-05-23T01:12:12.411Z,8.60
2023-05-23T01:14:49.403Z,8.55
2023-05-23T01:17:21.704Z,8.07
2023-05-23T01:20:10.243Z,8.30
2023-05-23T01:23:02.759Z,8.90
2023-05-23T01:25:59.342Z,8.68
2023-05-23T01:28:43.528Z,8.63
2023-05-23T01:31:11.106Z,9.27
2023-05-23T01:33:40.168Z,8.15
2023-05-23T01:36:08.028Z,9.48
2023-05-23T01:38:34.613Z,9.27
2023-05-23T01:41:01.176Z,8.38
2023-05-23T01:43:27.797Z,9.18
2023-05-23T01:45:56.731Z,8.10
2023-05-23T01:48:26.073Z,8.40
2023-05-23T01:50:53.369Z,8.98
2023-05-23T01:53:22.493Z,8.48
2023-05-23T01:55:49.401Z,8.18
2023-05-23T01:58:15.940Z,9.10
2023-05-23T02:00:42.494Z,8.90
2023-05-23T02:03:09.318Z,8.73
2023-05-23T02:05:36.151Z,8.85
2023-05-23T02:08:02.652Z,8.52
2023-05-23T02:10:29.190Z,9.02
2023-05-23T02:12:55.670Z,8.63
2023-05-23T02:15:22.202Z,8.90
2023-05-23T02:17:48.719Z,9.32
2023-05-23T02:20:15.384Z,9.15
2023-05-23T02:22:41.875Z,8.27
2023-05-23T02:25:08.743Z,8.50
2023-05-23T02:27:35.380Z,9.00
2023-05-23T02:30:01.995Z,8.82
2023-05-23T02:32:29.672Z,9.07
2023-05-23T02:34:57.447Z,8.80
2023-05-23T02:37:24.266Z,8.77
2023-05-23T02:39:50.760Z,8.20
2023-05-23T02:42:17.224Z,8.77
2023-05-23T02:44:43.778Z,9.43
2023-05-23T02:47:10.868Z,8.40
2023-05-23T02:49:37.383Z,9.20
2023-05-23T02:52:03.919Z,9.70
2023-05-23T02:54:31.126Z,9.38
2023-05-23T02:56:58.518Z,9.50
2023-05-23T02:59:26.727Z,9.88
2023-05-23T03:01:53.481Z,9.27
2023-05-23T03:04:19.986Z,8.80
2023-05-23T03:06:47.581Z,10.65
2023-05-23T03:09:17.014Z,9.45
2023-05-23T03:11:43.923Z,9.98
2023-05-23T03:14:10.628Z,9.60
2023-05-23T03:16:37.238Z,9.63
2023-05-23T03:19:04.761Z,9.68
2023-05-23T03:21:32.962Z,10.25
2023-05-23T03:23:59.503Z,9.52
2023-05-23T03:26:26.000Z,9.85
2023-05-23T03:28:52.568Z,10.43
2023-05-23T03:31:19.176Z,10.18
2023-05-23T03:33:45.829Z,9.25
2023-05-23T03:36:12.331Z,9.43
2023-05-23T03:38:38.852Z,9.45
2023-05-23T03:41:05.499Z,9.50
2023-05-23T03:43:32.053Z,10.52
2023-05-23T03:45:59.115Z,10.88
2023-05-23T03:48:25.711Z,9.68
2023-05-23T03:50:52.231Z,10.30
2023-05-23T03:53:18.801Z,10.02
2023-05-23T03:55:45.583Z,10.13
2023-05-23T03:58:12.092Z,10.32
2023-05-23T04:00:38.651Z,10.98
2023-05-23T04:03:05.296Z,10.30
2023-05-23T04:05:32.081Z,10.27
2023-05-23T04:08:01.339Z,9.88
2023-05-23T04:10:28.030Z,10.18
2023-05-23T04:12:54.570Z,10.20
2023-05-23T04:15:22.330Z,10.00
2023-05-23T04:17:48.940Z,10.55
2023-05-23T04:20:15.694Z,10.35
2023-05-23T04:22:42.194Z,10.73
2023-05-23T04:25:09.554Z,10.45
2023-05-23T04:27:37.296Z,10.32
2023-05-23T04:30:07.371Z,10.45
2023-05-23T04:32:34.111Z,11.05
2023-05-23T04:35:02.179Z,10.73
2023-05-23T04:37:28.918Z,10.38
2023-05-23T04:39:56.615Z,10.57
2023-05-23T04:42:24.729Z,10.85
2023-05-23T04:44:52.737Z,11.25
2023-05-23T04:47:19.324Z,10.63
2023-05-23T04:49:45.851Z,11.05
2023-05-23T04:52:13.428Z,11.68
2023-05-23T04:54:44.629Z,11.68
2023-05-23T04:57:12.392Z,11.40
2023-05-23T04:59:39.511Z,11.48
2023-05-23T05:02:06.511Z,11.77
2023-05-23T05:04:33.069Z,11.80
2023-05-23T05:06:59.612Z,12.57
2023-05-23T05:09:26.212Z,12.05
2023-05-23T05:11:52.769Z,12.45
2023-05-23T05:14:19.252Z,13.73
2023-05-23T05:16:47.915Z,12.95
2023-05-23T05:19:15.143Z,14.45
2023-05-23T05:21:41.752Z,14.18
2023-05-23T05:24:11.176Z,14.93
2023-05-23T05:26:37.750Z,14.80
2023-05-23T05:29:04.409Z,14.68
2023-05-23T05:31:31.092Z,15.10
2023-05-23T05:33:57.746Z,15.52
2023-05-23T05:36:24.356Z,16.08
2023-05-23T05:38:51.257Z,15.20
2023-05-23T05:41:17.839Z,15.13
2023-05-23T05:43:44.343Z,14.90
2023-05-23T05:46:11.525Z,13.60
2023-05-23T05:48:38.075Z,14.38
2023-05-23T05:51:04.847Z,18.17
2023-05-23T05:53:31.358Z,17.60
2023-05-23T05:55:57.928Z,19.77
2023-05-23T05:58:24.451Z,19.58
2023-05-23T06:00:50.997Z,19.58
2023-05-23T06:03:18.146Z,20.65
2023-05-23T06:05:44.811Z,19.50
2023-05-23T06:08:11.589Z,18.38
2023-05-23T06:10:39.862Z,19.80
2023-05-23T06:13:06.714Z,22.08
2023-05-23T06:15:33.304Z,17.90
2023-05-23T06:17:59.863Z,19.90
2023-05-23T06:20:26.627Z,19.90
2023-05-23T06:22:53.260Z,20.33
2023-05-23T06:25:19.963Z,19.25
2023-05-23T06:27:46.452Z,18.75
2023-05-23T06:30:13.798Z,20.00
2023-05-23T06:32:41.350Z,19.35
2023-05-23T06:35:08.360Z,18.83
2023-05-23T06:37:35.066Z,19.50
2023-05-23T06:40:01.806Z,20.15
2023-05-23T06:42:28.329Z,20.17
2023-05-23T06:44:54.908Z,19.58
2023-05-23T06:47:21.484Z,20.88
2023-05-23T06:49:48.033Z,20.58
2023-05-23T06:52:14.554Z,19.58
2023-05-23T06:54:41.309Z,20.00
2023-05-23T06:57:07.844Z,19.23
2023-05-23T06:59:34.343Z,19.77
2023-05-23T07:02:00.877Z,20.48
2023-05-23T07:04:27.415Z,20.40
2023-05-23T07:06:53.958Z,21.45
2023-05-23T07:09:20.607Z,20.17
2023-05-23T07:11:47.168Z,20.85
2023-05-23T07:14:13.792Z,22.38
2023-05-23T07:16:40.397Z,21.05
2023-05-23T07:19:07.127Z,21.88
2023-05-23T07:21:33.690Z,22.75
2023-05-23T07:24:00.564Z,22.58
2023-05-23T07:26:27.560Z,23.02
2023-05-23T07:28:54.169Z,22.30
2023-05-23T07:31:20.746Z,21.77
2023-05-23T07:33:47.283Z,22.08
2023-05-23T07:36:13.749Z,22.05
2023-05-23T07:38:40.298Z,21.95
2023-05-23T07:41:12.027Z,23.25
2023-05-23T07:43:39.444Z,22.40
2023-05-23T07:46:06.102Z,24.15
2023-05-23T07:48:33.228Z,21.83
2023-05-23T07:50:59.754Z,22.20
2023-05-23T07:53:26.496Z,22.85
2023-05-23T07:55:53.099Z,22.40
2023-05-23T07:58:19.648Z,22.77
2023-05-23T08:00:46.270Z,23.08
2023-05-23T08:03:13.425Z,22.10
2023-05-23T08:05:40.074Z,23.80
2023-05-23T08:08:06.630Z,23.60
2023-05-23T08:10:33.209Z,22.67
2023-05-23T08:13:00.956Z,22.20
2023-05-23T08:15:28.827Z,23.35
2023-05-23T08:17:57.383Z,23.65
2023-05-23T08:20:30.888Z,23.50
2023-05-23T08:23:01.424Z,23.92
2023-05-23T08:25:32.031Z,22.67
2023-05-23T08:27:59.419Z,22.80
2023-05-23T08:30:27.449Z,22.85
2023-05-23T08:32:55.683Z,23.67
2023-05-23T08:35:22.840Z,24.02
2023-05-23T08:37:50.908Z,23.67
2023-05-23T08:40:22.822Z,22.60
2023-05-23T08:42:50.875Z,22.90
2023-05-23T08:45:18.293Z,22.33
2023-05-23T08:47:46.059Z,23.98
2023-05-23T08:50:20.130Z,24.88
2023-05-23T08:52:55.993Z,23.05
2023-05-23T08:55:27.166Z,26.80
2023-05-23T08:57:59.323Z,25.02
2023-05-23T09:00:27.990Z,25.90
2023-05-23T09:02:54.776Z,25.58
2023-05-23T09:05:22.052Z,25.00
2023-05-23T09:07:49.256Z,26.05
2023-05-23T09:10:20.407Z,25.92
2023-05-23T09:12:47.442Z,26.20
2023-05-23T09:15:14.787Z,27.27
2023-05-23T09:17:41.714Z,25.30
2023-05-23T09:20:14.348Z,26.45
2023-05-23T09:22:41.386Z,25.17
2023-05-23T09:25:08.949Z,25.77
2023-05-23T09:27:36.125Z,25.83
2023-05-23T09:30:11.191Z,27.55
2023-05-23T09:32:38.178Z,25.92
2023-05-23T09:35:07.174Z,26.98
2023-05-23T09:37:39.258Z,26.52
2023-05-23T09:40:10.720Z,27.17
2023-05-23T09:42:44.250Z,27.55
2023-05-23T09:45:15.177Z,26.02
2023-05-23T09:47:52.215Z,26.85
2023-05-23T09:50:19.851Z,25.45
2023-05-23T09:52:47.178Z,26.13
2023-05-23T09:55:14.792Z,26.50
2023-05-23T09:57:42.802Z,25.48
2023-05-23T10:00:17.084Z,25.05
2023-05-23T10:03:01.771Z,24.30
2023-05-23T10:05:50.119Z,26.95
2023-05-23T10:08:29.980Z,26.42
2023-05-23T10:10:56.525Z,23.00
2023-05-23T10:13:26.789Z,22.35
2023-05-23T10:16:00.241Z,21.90
2023-05-23T10:18:29.992Z,23.60
2023-05-23T10:21:03.259Z,21.48
2023-05-23T10:23:29.879Z,22.00
2023-05-23T10:25:56.354Z,21.73
2023-05-23T10:28:23.038Z,22.90
2023-05-23T10:30:51.062Z,21.55
2023-05-23T10:33:18.922Z,20.83
2023-05-23T10:36:10.188Z,21.73
2023-05-23T10:38:44.107Z,20.77
2023-05-23T10:41:34.104Z,20.55
2023-05-23T10:44:27.061Z,21.42
2023-05-23T10:47:02.419Z,18.83
2023-05-23T10:49:52.428Z,19.75
2023-05-23T10:52:19.179Z,20.40
2023-05-23T10:54:54.057Z,19.15
2023-05-23T10:57:29.467Z,19.23
2023-05-23T10:59:56.251Z,18.20
2023-05-23T11:02:28.820Z,19.50
2023-05-23T11:05:24.797Z,19.05
2023-05-23T11:08:13.977Z,19.27
2023-05-23T11:10:59.466Z,18.52
2023-05-23T11:13:26.941Z,18.08
2023-05-23T11:15:53.601Z,18.80
2023-05-23T11:18:26.577Z,19.23
2023-05-23T11:20:54.621Z,20.98
2023-05-23T11:23:22.524Z,21.27
2023-05-23T11:25:52.077Z,19.60
2023-05-23T11:28:18.910Z,21.55
2023-05-23T11:30:48.875Z,21.00
2023-05-23T11:33:17.209Z,19.55
2023-05-23T11:35:47.851Z,19.83
2023-05-23T11:38:16.719Z,21.45
2023-05-23T11:40:46.241Z,21.40
2023-05-23T11:43:18.088Z,20.10
2023-05-23T11:45:46.870Z,19.35
2023-05-23T11:48:16.556Z,19.15
2023-05-23T11:50:48.510Z,19.20
2023-05-23T11:53:20.847Z,18.03
2023-05-23T11:55:55.017Z,16.27
2023-05-23T11:58:23.192Z,16.80
2023-05-23T12:00:49.975Z,16.33
2023-05-23T12:03:16.847Z,17.75
2023-05-23T12:05:45.451Z,17.02
2023-05-23T12:08:14.213Z,15.88
2023-05-23T12:11:00.367Z,16.33
2023-05-23T12:13:29.218Z,16.00
2023-05-23T12:15:56.694Z,14.88
2023-05-23T12:18:23.649Z,13.85
2023-05-23T12:20:51.536Z,14.98
2023-05-23T12:23:25.089Z,12.75
2023-05-23T12:25:55.673Z,13.38
2023-05-23T12:28:35.079Z,13.88
2023-05-23T12:31:18.967Z,12.10
2023-05-23T12:33:48.366Z,13.63
2023-05-23T12:36:22.986Z,12.30
2023-05-23T12:38:49.672Z,12.35
2023-05-23T12:41:19.809Z,11.23
2023-05-23T12:43:51.896Z,10.75
2023-05-23T12:46:19.375Z,11.77
2023-05-23T12:48:45.837Z,10.95
2023-05-23T12:51:12.381Z,10.27
2023-05-23T12:53:39.150Z,10.32
2023-05-23T12:56:06.027Z,11.50
2023-05-23T12:58:32.850Z,9.80
2023-05-23T13:00:59.447Z,11.43
2023-05-23T13:03:26.286Z,10.40
2023-05-23T13:05:53.881Z,10.52
2023-05-23T13:08:21.393Z,10.90
2023-05-23T13:10:48.266Z,10.20
2023-05-23T13:13:15.296Z,11.35
2023-05-23T13:15:42.480Z,10.90
2023-05-23T13:18:09.633Z,11.40
2023-05-23T13:20:36.167Z,11.35
2023-05-23T13:23:02.864Z,12.27
2023-05-23T13:25:29.781Z,11.88
2023-05-23T13:27:56.964Z,11.40
2023-05-23T13:30:24.783Z,11.90
2023-05-23T13:32:52.200Z,11.18
2023-05-23T13:35:18.950Z,11.75
2023-05-23T13:37:45.519Z,11.15
2023-05-23T13:40:20.266Z,10.27
2023-05-23T13:42:51.305Z,9.55
2023-05-23T13:45:18.640Z,11.05
2023-05-23T13:47:45.524Z,10.85
2023-05-23T13:50:12.181Z,10.20
2023-05-23T13:52:41.126Z,11.85
2023-05-23T13:55:10.008Z,10.50
2023-05-23T13:57:36.576Z,10.55
2023-05-23T14:00:03.733Z,11.00
2023-05-23T14:02:32.190Z,10.88
2023-05-23T14:04:58.972Z,10.98
2023-05-23T14:07:25.577Z,10.40
2023-05-23T14:09:52.192Z,10.45
2023-05-23T14:12:18.822Z,10.30
2023-05-23T14:14:45.343Z,10.30
2023-05-23T14:17:17.650Z,9.70
2023-05-23T14:19:44.529Z,9.32
2023-05-23T14:22:11.464Z,9.32
2023-05-23T14:24:38.087Z,8.68
2023-05-23T14:27:04.831Z,9.75
2023-05-23T14:29:31.724Z,9.02
2023-05-23T14:32:00.844Z,8.65
2023-05-23T14:34:27.586Z,8.65
2023-05-23T14:36:54.237Z,9.13
2023-05-23T14:39:20.723Z,8.93
2023-05-23T14:41:47.247Z,8.68
2023-05-23T14:44:13.806Z,8.35
2023-05-23T14:46:42.080Z,8.90
2023-05-23T14:49:08.650Z,8.82
2023-05-23T14:54:09.692Z,8.30
2023-05-23T14:56:37.735Z,8.13
2023-05-23T14:59:08.116Z,8.63
2023-05-23T15:01:35.660Z,8.18
2023-05-23T15:04:05.619Z,8.55
2023-05-23T15:06:32.399Z,8.48
2023-05-23T15:08:58.979Z,7.20
2023-05-23T15:11:27.397Z,8.70
2023-05-23T15:13:54.299Z,7.97
2023-05-23T15:16:20.959Z,7.47
2023-05-23T15:18:47.739Z,8.20
2023-05-23T15:21:14.629Z,7.70
2023-05-23T15:23:41.686Z,7.78
2023-05-23T15:26:08.365Z,7.35
2023-05-23T15:28:35.031Z,6.88
2023-05-23T15:31:01.859Z,7.45
2023-05-23T15:33:28.788Z,7.80
2023-05-23T15:35:55.898Z,7.10
2023-05-23T15:38:22.404Z,7.60
2023-05-23T15:40:49.126Z,7.47
2023-05-23T15:43:15.759Z,7.72
2023-05-23T15:45:42.446Z,7.97
2023-05-23T15:48:09.183Z,7.78
2023-05-23T15:50:35.843Z,7.28
2023-05-23T15:53:02.396Z,7.13
2023-05-23T15:55:29.017Z,6.60
2023-05-23T15:57:55.685Z,6.43
2023-05-23T16:00:22.233Z,6.93
2023-05-23T16:02:48.777Z,6.65
2023-05-23T16:05:16.418Z,7.30
2023-05-23T16:07:43.053Z,7.05
2023-05-23T16:10:09.970Z,6.63
2023-05-23T16:12:36.770Z,6.90
2023-05-23T16:15:03.546Z,6.75
2023-05-23T16:17:30.108Z,6.32
2023-05-23T16:19:56.638Z,6.47
2023-05-23T16:22:23.559Z,6.90
2023-05-23T16:24:50.048Z,7.13
2023-05-23T16:27:16.660Z,6.32
2023-05-23T16:29:43.402Z,6.32
2023-05-23T16:32:10.013Z,6.72
2023-05-23T16:34:36.725Z,6.28
2023-05-23T16:37:03.320Z,6.50
2023-05-23T16:39:29.892Z,6.05
2023-05-23T16:41:57.533Z,5.28
2023-05-23T16:44:26.165Z,6.30
2023-05-23T16:46:52.701Z,5.80
2023-05-23T16:49:19.363Z,5.53
2023-05-23T16:51:48.556Z,6.00
2023-05-23T16:54:16.083Z,6.28
2023-05-23T16:56:43.162Z,7.03
2023-05-23T16:59:09.652Z,6.32
2023-05-23T17:01:36.419Z,5.50
2023-05-23T17:04:04.676Z,5.55
2023-05-23T17:06:32.182Z,6.07
2023-05-23T17:08:58.724Z,5.80
2023-05-23T17:11:25.662Z,7.75
2023-05-23T17:13:52.298Z,5.43
2023-05-23T17:16:20.710Z,5.10
2023-05-23T17:18:47.558Z,4.70
2023-05-23T17:21:14.150Z,5.25
2023-05-23T17:23:40.793Z,5.13
2023-05-23T17:26:07.362Z,6.18
2023-05-23T17:28:33.982Z,9.25
2023-05-23T17:31:00.996Z,11.65
2023-05-23T17:33:27.781Z,7.45
2023-05-23T17:35:54.382Z,6.22
2023-05-23T17:38:21.165Z,5.95
2023-05-23T17:40:47.774Z,6.47
2023-05-23T17:43:14.366Z,5.53
2023-05-23T17:45:41.433Z,4.78
2023-05-23T17:48:07.992Z,5.72
2023-05-23T17:50:34.566Z,4.93
2023-05-23T17:53:02.787Z,4.88
2023-05-23T17:55:30.671Z,5.43
2023-05-23T17:57:57.211Z,4.95
2023-05-23T18:00:24.169Z,4.90
2023-05-23T18:02:51.905Z,4.30
2023-05-23T18:05:20.778Z,4.68
2023-05-23T18:07:47.804Z,3.75
2023-05-23T18:10:14.526Z,4.00
2023-05-23T18:12:41.361Z,4.53
2023-05-23T18:15:08.829Z,4.45
2023-05-23T18:17:35.767Z,3.92
2023-05-23T18:20:02.602Z,3.85
2023-05-23T18:22:31.725Z,3.90
2023-05-23T18:24:58.309Z,4.05
2023-05-23T18:27:25.158Z,4.60
2023-05-23T18:29:51.899Z,3.88
2023-05-23T18:32:18.543Z,3.92
2023-05-23T18:34:45.094Z,4.13
2023-05-23T18:37:11.657Z,4.10
2023-05-23T18:39:38.670Z,3.28
2023-05-23T18:42:05.763Z,4.03
2023-05-23T18:44:32.347Z,3.58
2023-05-23T18:46:58.981Z,3.80
2023-05-23T18:49:25.590Z,3.42
2023-05-23T18:51:54.368Z,3.75
2023-05-23T18:54:20.953Z,3.70
2023-05-23T18:56:47.496Z,3.58
2023-05-23T18:59:15.852Z,3.20
2023-05-23T19:01:42.705Z,2.88
2023-05-23T19:04:09.945Z,3.20
2023-05-23T19:06:36.800Z,3.63
2023-05-23T19:09:06.720Z,3.33
2023-05-23T19:11:33.283Z,3.10
2023-05-23T19:13:59.799Z,3.72
2023-05-23T19:16:26.322Z,3.22
2023-05-23T19:18:53.197Z,3.50
2023-05-23T19:21:19.810Z,3.00
2023-05-23T19:23:46.312Z,2.90
2023-05-23T19:26:13.665Z,2.80
2023-05-23T19:28:40.553Z,2.70
2023-05-23T19:31:07.940Z,3.08
2023-05-23T19:33:34.577Z,2.92
2023-05-23T19:36:01.187Z,2.90
2023-05-23T19:38:27.737Z,3.33
2023-05-23T19:40:54.397Z,2.97
2023-05-23T19:43:21.028Z,3.35
2023-05-23T19:45:48.849Z,3.33
2023-05-23T19:48:16.089Z,4.22
2023-05-23T19:50:43.442Z,4.15
2023-05-23T19:53:10.507Z,3.75
2023-05-23T19:55:37.094Z,4.35
2023-05-23T19:58:03.641Z,4.13
2023-05-23T20:00:30.191Z,4.00
2023-05-23T20:02:56.956Z,4.22
2023-05-23T20:05:23.782Z,4.30
2023-05-23T20:07:50.369Z,4.88
2023-05-23T20:10:16.959Z,5.15
2023-05-23T20:12:43.497Z,5.18
2023-05-23T20:15:10.904Z,6.10
2023-05-23T20:17:38.844Z,6.75
2023-05-23T20:20:06.375Z,7.05
2023-05-23T20:22:32.851Z,8.27
2023-05-23T20:24:59.389Z,8.18
2023-05-23T20:27:26.821Z,7.85
2023-05-23T20:29:53.371Z,8.05
2023-05-23T20:32:19.895Z,8.75
2023-05-23T20:34:46.756Z,8.15
2023-05-23T20:37:13.713Z,9.13
2023-05-23T20:39:43.836Z,8.43
2023-05-23T20:42:10.438Z,8.18
2023-05-23T20:44:38.167Z,8.48
2023-05-23T20:47:06.783Z,7.78
2023-05-23T20:49:34.802Z,7.78
2023-05-23T20:52:01.648Z,8.18
2023-05-23T20:54:28.233Z,7.25
2023-05-23T20:56:54.763Z,7.88
2023-05-23T20:59:21.645Z,7.22
2023-05-23T21:01:48.162Z,7.30
2023-05-23T21:04:16.170Z,7.20
2023-05-23T21:06:44.654Z,6.35
2023-05-23T21:09:13.605Z,6.47
2023-05-23T21:11:40.117Z,6.22
2023-05-23T21:14:06.669Z,6.30
2023-05-23T21:16:33.549Z,6.38
2023-05-23T21:19:00.369Z,5.97
2023-05-23T21:21:26.950Z,6.55
2023-05-23T21:23:53.486Z,7.03
2023-05-23T21:26:20.022Z,6.55
2023-05-23T21:28:46.483Z,6.65
2023-05-23T21:31:13.367Z,6.45
2023-05-23T21:33:39.905Z,6.20
2023-05-23T21:36:06.590Z,6.70
2023-05-23T21:38:37.349Z,7.10
2023-05-23T21:41:03.932Z,5.93
2023-05-23T21:43:30.616Z,6.30
2023-05-23T21:45:57.138Z,5.82
2023-05-23T21:48:23.717Z,6.22
2023-05-23T21:50:50.498Z,6.57
2023-05-23T21:53:17.081Z,6.25
2023-05-23T21:55:43.669Z,6.57
2023-05-23T21:58:10.279Z,6.43
2023-05-23T22:00:36.858Z,6.55
2023-05-23T22:03:03.413Z,6.60
2023-05-23T22:05:30.031Z,6.30
2023-05-23T22:07:56.453Z,7.10
2023-05-23T22:10:22.902Z,7.03
2023-05-23T22:12:49.347Z,6.78
2023-05-23T22:15:15.950Z,6.90
2023-05-23T22:17:43.717Z,6.97
2023-05-23T22:20:14.382Z,7.20
2023-05-23T22:22:40.889Z,6.63
2023-05-23T22:25:08.056Z,7.35
2023-05-23T22:27:34.539Z,6.20
2023-05-23T22:30:00.979Z,6.20
2023-05-23T22:32:27.422Z,6.47
2023-05-23T22:34:53.858Z,6.63
2023-05-23T22:37:20.680Z,6.60
2023-05-23T22:39:47.219Z,6.45
2023-05-23T22:42:13.784Z,6.82
2023-05-23T22:44:40.253Z,7.07
2023-05-23T22:47:06.831Z,7.00
2023-05-23T22:49:33.304Z,6.97
2023-05-23T22:51:59.875Z,7.63
2023-05-23T22:54:26.484Z,8.65
2023-05-23T22:56:53.160Z,7.35
2023-05-23T22:59:19.714Z,7.88
2023-05-23T23:01:46.367Z,7.82
2023-05-23T23:04:12.866Z,8.63
2023-05-23T23:06:39.355Z,8.63
2023-05-23T23:09:05.869Z,8.48
2023-05-23T23:11:32.338Z,8.13
2023-05-23T23:13:59.845Z,8.77
2023-05-23T23:16:26.346Z,9.38
2023-05-23T23:18:52.817Z,9.52
2023-05-23T23:21:19.310Z,9.10
2023-05-23T23:23:45.766Z,9.00
2023-05-23T23:26:12.343Z,9.93
2023-05-23T23:28:38.744Z,9.27
2023-05-23T23:31:05.295Z,10.38
2023-05-23T23:33:31.768Z,11.60
2023-05-23T23:35:58.360Z,11.18
2023-05-23T23:38:24.789Z,10.68
2023-05-23T23:40:51.365Z,10.68
2023-05-23T23:43:18.000Z,10.90
2023-05-23T23:45:45.209Z,11.80
2023-05-23T23:48:13.830Z,10.38
2023-05-23T23:50:40.745Z,11.32
2023-05-23T23:53:07.924Z,10.88
2023-05-23T23:55:34.524Z,11.35
2023-05-23T23:58:01.033Z,12.10
